sensor_id;sensor_type;location;lat;lon;timestamp;P1;durP1;ratioP1;P2;durP2;ratioP2
54171;SDS011;40076;52.354;4.970;2024-03-08T00:00:00;37.55;;;21.50;;
54171;SDS011;40076;52.354;4.970;2024-03-08T00:02:37;41.72;;;22.42;;
54171;SDS011;40076;52.354;4.970;2024-03-08T00:05:04;36.92;;;22.33;;
54171;SDS011;40076;52.354;4.970;2024-03-08T00:07:51;38.05;;;21.55;;
54171;SDS011;40076;52.354;4.970;2024-03-08T00:10:21;36.45;;;22.05;;
54171;SDS011;40076;52.354;4.970;2024-03-08T00:12:54;38.72;;;21.83;;
54171;SDS011;40076;52.354;4.970;2024-03-08T00:15:22;37.58;;;21.15;;
54171;SDS011;40076;52.354;4.970;2024-03-08T00:17:53;37.97;;;21.08;;
54171;SDS011;40076;52.354;4.970;2024-03-08T00:20:19;33.25;;;20.83;;
54171;SDS011;40076;52.354;4.970;2024-03-08T00:22:44;37.25;;;21.13;;
54171;SDS011;40076;52.354;4.970;2024-03-08T00:25:11;40.53;;;21.65;;
54171;SDS011;40076;52.354;4.970;2024-03-08T00:27:39;39.38;;;21.65;;
54171;SDS011;40076;52.354;4.970;2024-03-08T00:30:09;33.13;;;19.80;;
54171;SDS011;40076;52.354;4.970;2024-03-08T00:32:37;32.40;;;19.67;;
54171;SDS011;40076;52.354;4.970;2024-03-08T00:35:02;32.30;;;21.27;;
54171;SDS011;40076;52.354;4.970;2024-03-08T00:37:28;37.03;;;21.38;;
54171;SDS011;40076;52.354;4.970;2024-03-08T00:39:56;38.17;;;21.00;;
54171;SDS011;40076;52.354;4.970;2024-03-08T00:42:29;38.17;;;22.00;;
54171;SDS011;40076;52.354;4.970;2024-03-08T00:44:54;33.22;;;20.90;;
54171;SDS011;40076;52.354;4.970;2024-03-08T00:47:30;33.70;;;20.70;;
54171;SDS011;40076;52.354;4.970;2024-03-08T00:49:59;37.10;;;21.05;;
54171;SDS011;40076;52.354;4.970;2024-03-08T00:52:24;35.90;;;21.05;;
54171;SDS011;40076;52.354;4.970;2024-03-08T00:54:52;30.17;;;19.55;;
54171;SDS011;40076;52.354;4.970;2024-03-08T00:57:18;36.72;;;21.45;;
54171;SDS011;40076;52.354;4.970;2024-03-08T00:59:44;31.05;;;20.38;;
54171;SDS011;40076;52.354;4.970;2024-03-08T01:02:09;35.55;;;20.88;;
54171;SDS011;40076;52.354;4.970;2024-03-08T01:04:35;33.92;;;20.42;;
54171;SDS011;40076;52.354;4.970;2024-03-08T01:07:01;36.08;;;20.00;;
54171;SDS011;40076;52.354;4.970;2024-03-08T01:09:26;31.33;;;20.50;;
54171;SDS011;40076;52.354;4.970;2024-03-08T01:11:55;31.98;;;19.80;;
54171;SDS011;40076;52.354;4.970;2024-03-08T01:14:21;34.92;;;20.15;;
54171;SDS011;40076;52.354;4.970;2024-03-08T01:16:56;34.78;;;20.55;;
54171;SDS011;40076;52.354;4.970;2024-03-08T01:19:21;33.50;;;20.38;;
54171;SDS011;40076;52.354;4.970;2024-03-08T01:21:54;35.80;;;20.70;;
54171;SDS011;40076;52.354;4.970;2024-03-08T01:24:21;32.20;;;19.35;;
54171;SDS011;40076;52.354;4.970;2024-03-08T01:26:47;37.67;;;20.55;;
54171;SDS011;40076;52.354;4.970;2024-03-08T01:29:15;33.50;;;20.75;;
54171;SDS011;40076;52.354;4.970;2024-03-08T01:31:43;38.22;;;21.90;;
54171;SDS011;40076;52.354;4.970;2024-03-08T01:34:09;33.20;;;20.58;;
54171;SDS011;40076;52.354;4.970;2024-03-08T01:36:35;32.67;;;20.65;;
54171;SDS011;40076;52.354;4.970;2024-03-08T01:39:02;36.00;;;21.02;;
54171;SDS011;40076;52.354;4.970;2024-03-08T01:41:35;31.98;;;20.63;;
54171;SDS011;40076;52.354;4.970;2024-03-08T01:44:01;36.47;;;21.17;;
54171;SDS011;40076;52.354;4.970;2024-03-08T01:46:28;33.08;;;21.63;;
54171;SDS011;40076;52.354;4.970;2024-03-08T01:48:54;36.17;;;21.58;;
54171;SDS011;40076;52.354;4.970;2024-03-08T01:51:20;35.05;;;20.58;;
54171;SDS011;40076;52.354;4.970;2024-03-08T01:53:51;32.45;;;20.70;;
54171;SDS011;40076;52.354;4.970;2024-03-08T01:56:16;32.35;;;21.75;;
54171;SDS011;40076;52.354;4.970;2024-03-08T01:58:43;35.20;;;21.67;;
54171;SDS011;40076;52.354;4.970;2024-03-08T02:01:14;33.47;;;20.95;;
54171;SDS011;40076;52.354;4.970;2024-03-08T02:03:40;32.88;;;20.80;;
54171;SDS011;40076;52.354;4.970;2024-03-08T02:06:08;35.08;;;21.35;;
54171;SDS011;40076;52.354;4.970;2024-03-08T02:08:35;33.08;;;20.58;;
54171;SDS011;40076;52.354;4.970;2024-03-08T02:11:01;36.75;;;21.90;;
54171;SDS011;40076;52.354;4.970;2024-03-08T02:13:27;36.20;;;22.45;;
54171;SDS011;40076;52.354;4.970;2024-03-08T02:15:57;32.78;;;21.23;;
54171;SDS011;40076;52.354;4.970;2024-03-08T02:20:57;40.35;;;21.38;;
54171;SDS011;40076;52.354;4.970;2024-03-08T02:23:28;39.20;;;22.52;;
54171;SDS011;40076;52.354;4.970;2024-03-08T02:25:54;35.13;;;22.25;;
54171;SDS011;40076;52.354;4.970;2024-03-08T02:28:21;33.63;;;21.67;;
54171;SDS011;40076;52.354;4.970;2024-03-08T02:30:48;35.67;;;22.30;;
54171;SDS011;40076;52.354;4.970;2024-03-08T02:33:14;35.70;;;22.15;;
54171;SDS011;40076;52.354;4.970;2024-03-08T02:35:44;33.95;;;21.88;;
54171;SDS011;40076;52.354;4.970;2024-03-08T02:38:13;33.40;;;21.25;;
54171;SDS011;40076;52.354;4.970;2024-03-08T02:40:43;33.88;;;21.63;;
54171;SDS011;40076;52.354;4.970;2024-03-08T02:43:10;35.83;;;22.13;;
54171;SDS011;40076;52.354;4.970;2024-03-08T02:45:43;37.47;;;22.55;;
54171;SDS011;40076;52.354;4.970;2024-03-08T02:48:13;33.00;;;22.60;;
54171;SDS011;40076;52.354;4.970;2024-03-08T02:50:43;33.55;;;22.75;;
54171;SDS011;40076;52.354;4.970;2024-03-08T02:53:09;36.38;;;20.70;;
54171;SDS011;40076;52.354;4.970;2024-03-08T02:55:36;33.05;;;22.67;;
54171;SDS011;40076;52.354;4.970;2024-03-08T02:58:06;38.50;;;23.77;;
54171;SDS011;40076;52.354;4.970;2024-03-08T03:00:38;34.85;;;22.17;;
54171;SDS011;40076;52.354;4.970;2024-03-08T03:03:04;40.95;;;22.48;;
54171;SDS011;40076;52.354;4.970;2024-03-08T03:05:29;38.28;;;22.27;;
54171;SDS011;40076;52.354;4.970;2024-03-08T03:07:55;37.42;;;23.33;;
54171;SDS011;40076;52.354;4.970;2024-03-08T03:10:29;37.45;;;22.75;;
54171;SDS011;40076;52.354;4.970;2024-03-08T03:12:54;33.03;;;22.40;;
54171;SDS011;40076;52.354;4.970;2024-03-08T03:15:20;34.65;;;22.13;;
54171;SDS011;40076;52.354;4.970;2024-03-08T03:17:49;40.30;;;23.55;;
54171;SDS011;40076;52.354;4.970;2024-03-08T03:20:18;34.43;;;22.77;;
54171;SDS011;40076;52.354;4.970;2024-03-08T03:23:00;36.08;;;23.15;;
54171;SDS011;40076;52.354;4.970;2024-03-08T03:25:27;36.72;;;22.65;;
54171;SDS011;40076;52.354;4.970;2024-03-08T03:28:00;38.05;;;23.77;;
54171;SDS011;40076;52.354;4.970;2024-03-08T03:30:28;36.55;;;23.65;;
54171;SDS011;40076;52.354;4.970;2024-03-08T03:32:58;34.15;;;23.10;;
54171;SDS011;40076;52.354;4.970;2024-03-08T03:35:27;38.35;;;22.13;;
54171;SDS011;40076;52.354;4.970;2024-03-08T03:37:56;37.22;;;22.75;;
54171;SDS011;40076;52.354;4.970;2024-03-08T03:40:32;33.30;;;22.08;;
54171;SDS011;40076;52.354;4.970;2024-03-08T03:43:21;36.05;;;22.98;;
54171;SDS011;40076;52.354;4.970;2024-03-08T03:45:46;34.15;;;23.80;;
54171;SDS011;40076;52.354;4.970;2024-03-08T03:48:14;34.75;;;23.02;;
54171;SDS011;40076;52.354;4.970;2024-03-08T03:50:44;37.35;;;23.38;;
54171;SDS011;40076;52.354;4.970;2024-03-08T03:53:10;37.33;;;23.63;;
54171;SDS011;40076;52.354;4.970;2024-03-08T03:55:35;37.22;;;23.40;;
54171;SDS011;40076;52.354;4.970;2024-03-08T03:58:04;34.55;;;22.90;;
54171;SDS011;40076;52.354;4.970;2024-03-08T04:00:29;37.13;;;23.98;;
54171;SDS011;40076;52.354;4.970;2024-03-08T04:02:55;37.50;;;23.27;;
54171;SDS011;40076;52.354;4.970;2024-03-08T04:05:25;36.78;;;22.60;;
54171;SDS011;40076;52.354;4.970;2024-03-08T04:07:51;35.33;;;23.17;;
54171;SDS011;40076;52.354;4.970;2024-03-08T04:10:23;36.95;;;24.15;;
54171;SDS011;40076;52.354;4.970;2024-03-08T04:12:49;37.92;;;23.00;;
54171;SDS011;40076;52.354;4.970;2024-03-08T04:15:14;39.60;;;24.50;;
54171;SDS011;40076;52.354;4.970;2024-03-08T04:17:40;38.55;;;22.98;;
54171;SDS011;40076;52.354;4.970;2024-03-08T04:20:05;38.10;;;23.38;;
54171;SDS011;40076;52.354;4.970;2024-03-08T04:22:39;38.70;;;23.75;;
54171;SDS011;40076;52.354;4.970;2024-03-08T04:25:05;37.35;;;24.25;;
54171;SDS011;40076;52.354;4.970;2024-03-08T04:27:36;34.22;;;22.70;;
54171;SDS011;40076;52.354;4.970;2024-03-08T04:30:02;38.53;;;23.55;;
54171;SDS011;40076;52.354;4.970;2024-03-08T04:32:28;39.22;;;23.98;;
54171;SDS011;40076;52.354;4.970;2024-03-08T04:34:57;37.60;;;22.90;;
54171;SDS011;40076;52.354;4.970;2024-03-08T04:37:26;37.45;;;24.02;;
54171;SDS011;40076;52.354;4.970;2024-03-08T04:39:52;39.13;;;24.52;;
54171;SDS011;40076;52.354;4.970;2024-03-08T04:42:18;34.83;;;23.27;;
54171;SDS011;40076;52.354;4.970;2024-03-08T04:44:46;39.10;;;23.85;;
54171;SDS011;40076;52.354;4.970;2024-03-08T04:47:14;35.28;;;23.38;;
54171;SDS011;40076;52.354;4.970;2024-03-08T04:49:43;41.15;;;25.15;;
54171;SDS011;40076;52.354;4.970;2024-03-08T04:52:09;38.28;;;24.73;;
54171;SDS011;40076;52.354;4.970;2024-03-08T04:54:37;38.15;;;23.45;;
54171;SDS011;40076;52.354;4.970;2024-03-08T04:57:02;38.42;;;24.55;;
54171;SDS011;40076;52.354;4.970;2024-03-08T04:59:29;39.10;;;24.92;;
54171;SDS011;40076;52.354;4.970;2024-03-08T05:01:55;36.92;;;24.15;;
54171;SDS011;40076;52.354;4.970;2024-03-08T05:04:21;38.53;;;24.25;;
54171;SDS011;40076;52.354;4.970;2024-03-08T05:06:47;39.47;;;25.70;;
54171;SDS011;40076;52.354;4.970;2024-03-08T05:09:13;37.92;;;25.05;;
54171;SDS011;40076;52.354;4.970;2024-03-08T05:11:42;41.00;;;25.63;;
54171;SDS011;40076;52.354;4.970;2024-03-08T05:14:12;30.40;;;19.80;;
54171;SDS011;40076;52.354;4.970;2024-03-08T05:16:46;42.03;;;25.73;;
54171;SDS011;40076;52.354;4.970;2024-03-08T05:19:15;40.63;;;26.33;;
54171;SDS011;40076;52.354;4.970;2024-03-08T05:21:44;37.55;;;25.67;;
54171;SDS011;40076;52.354;4.970;2024-03-08T05:24:14;38.88;;;25.13;;
54171;SDS011;40076;52.354;4.970;2024-03-08T05:26:42;43.17;;;25.52;;
54171;SDS011;40076;52.354;4.970;2024-03-08T05:29:10;39.03;;;24.90;;
54171;SDS011;40076;52.354;4.970;2024-03-08T05:31:46;37.78;;;25.60;;
54171;SDS011;40076;52.354;4.970;2024-03-08T05:34:13;40.88;;;25.73;;
54171;SDS011;40076;52.354;4.970;2024-03-08T05:36:43;38.67;;;24.35;;
54171;SDS011;40076;52.354;4.970;2024-03-08T05:39:10;39.88;;;25.60;;
54171;SDS011;40076;52.354;4.970;2024-03-08T05:41:38;40.38;;;25.98;;
54171;SDS011;40076;52.354;4.970;2024-03-08T05:44:07;39.50;;;25.40;;
54171;SDS011;40076;52.354;4.970;2024-03-08T05:46:38;39.28;;;25.92;;
54171;SDS011;40076;52.354;4.970;2024-03-08T05:49:08;40.28;;;25.70;;
54171;SDS011;40076;52.354;4.970;2024-03-08T05:51:38;41.50;;;26.23;;
54171;SDS011;40076;52.354;4.970;2024-03-08T05:54:07;41.58;;;25.92;;
54171;SDS011;40076;52.354;4.970;2024-03-08T05:56:37;41.15;;;26.45;;
54171;SDS011;40076;52.354;4.970;2024-03-08T05:59:09;38.67;;;24.80;;
54171;SDS011;40076;52.354;4.970;2024-03-08T06:01:38;40.67;;;25.33;;
54171;SDS011;40076;52.354;4.970;2024-03-08T06:04:07;40.42;;;26.00;;
54171;SDS011;40076;52.354;4.970;2024-03-08T06:06:32;39.95;;;26.25;;
54171;SDS011;40076;52.354;4.970;2024-03-08T06:08:58;40.45;;;25.38;;
54171;SDS011;40076;52.354;4.970;2024-03-08T06:11:36;40.00;;;25.52;;
54171;SDS011;40076;52.354;4.970;2024-03-08T06:14:05;36.63;;;25.52;;
54171;SDS011;40076;52.354;4.970;2024-03-08T06:16:31;42.42;;;25.27;;
54171;SDS011;40076;52.354;4.970;2024-03-08T06:18:58;39.83;;;26.10;;
54171;SDS011;40076;52.354;4.970;2024-03-08T06:21:27;38.75;;;25.60;;
54171;SDS011;40076;52.354;4.970;2024-03-08T06:23:55;40.95;;;26.23;;
54171;SDS011;40076;52.354;4.970;2024-03-08T06:26:25;37.00;;;24.52;;
54171;SDS011;40076;52.354;4.970;2024-03-08T06:28:59;40.70;;;24.88;;
54171;SDS011;40076;52.354;4.970;2024-03-08T06:31:25;37.60;;;25.17;;
54171;SDS011;40076;52.354;4.970;2024-03-08T06:33:51;37.25;;;23.83;;
54171;SDS011;40076;52.354;4.970;2024-03-08T06:36:21;38.63;;;25.23;;
54171;SDS011;40076;52.354;4.970;2024-03-08T06:38:50;36.72;;;24.63;;
54171;SDS011;40076;52.354;4.970;2024-03-08T06:41:16;38.60;;;24.27;;
54171;SDS011;40076;52.354;4.970;2024-03-08T06:43:47;39.17;;;25.08;;
54171;SDS011;40076;52.354;4.970;2024-03-08T06:46:16;35.97;;;24.60;;
54171;SDS011;40076;52.354;4.970;2024-03-08T06:48:45;41.58;;;26.00;;
54171;SDS011;40076;52.354;4.970;2024-03-08T06:51:13;37.53;;;24.02;;
54171;SDS011;40076;52.354;4.970;2024-03-08T06:53:44;37.80;;;25.35;;
54171;SDS011;40076;52.354;4.970;2024-03-08T06:56:39;38.83;;;25.02;;
54171;SDS011;40076;52.354;4.970;2024-03-08T06:59:47;37.70;;;25.30;;
54171;SDS011;40076;52.354;4.970;2024-03-08T07:05:44;41.95;;;25.85;;
54171;SDS011;40076;52.354;4.970;2024-03-08T07:08:17;38.90;;;25.55;;
54171;SDS011;40076;52.354;4.970;2024-03-08T07:10:50;37.50;;;25.30;;
54171;SDS011;40076;52.354;4.970;2024-03-08T07:13:18;37.80;;;25.23;;
54171;SDS011;40076;52.354;4.970;2024-03-08T07:15:44;37.25;;;25.67;;
54171;SDS011;40076;52.354;4.970;2024-03-08T07:18:23;41.75;;;25.27;;
54171;SDS011;40076;52.354;4.970;2024-03-08T07:20:49;41.08;;;26.70;;
54171;SDS011;40076;52.354;4.970;2024-03-08T07:23:20;38.85;;;26.20;;
54171;SDS011;40076;52.354;4.970;2024-03-08T07:26:10;40.80;;;26.00;;
54171;SDS011;40076;52.354;4.970;2024-03-08T07:28:45;36.42;;;24.85;;
54171;SDS011;40076;52.354;4.970;2024-03-08T07:31:15;38.40;;;25.77;;
54171;SDS011;40076;52.354;4.970;2024-03-08T07:34:08;37.80;;;25.70;;
54171;SDS011;40076;52.354;4.970;2024-03-08T07:36:34;39.22;;;25.50;;
54171;SDS011;40076;52.354;4.970;2024-03-08T07:39:09;40.50;;;25.33;;
54171;SDS011;40076;52.354;4.970;2024-03-08T07:41:37;37.63;;;25.20;;
54171;SDS011;40076;52.354;4.970;2024-03-08T07:44:05;42.28;;;26.17;;
54171;SDS011;40076;52.354;4.970;2024-03-08T07:46:35;42.10;;;25.88;;
54171;SDS011;40076;52.354;4.970;2024-03-08T07:49:01;39.67;;;26.05;;
54171;SDS011;40076;52.354;4.970;2024-03-08T07:51:29;42.70;;;25.50;;
54171;SDS011;40076;52.354;4.970;2024-03-08T07:53:55;41.40;;;27.42;;
54171;SDS011;40076;52.354;4.970;2024-03-08T07:56:23;40.35;;;26.40;;
54171;SDS011;40076;52.354;4.970;2024-03-08T07:58:50;41.40;;;25.83;;
54171;SDS011;40076;52.354;4.970;2024-03-08T08:01:18;46.70;;;27.27;;
54171;SDS011;40076;52.354;4.970;2024-03-08T08:03:44;38.63;;;25.27;;
54171;SDS011;40076;52.354;4.970;2024-03-08T08:06:10;40.38;;;26.02;;
54171;SDS011;40076;52.354;4.970;2024-03-08T08:08:41;36.65;;;25.45;;
54171;SDS011;40076;52.354;4.970;2024-03-08T08:14:11;40.55;;;25.27;;
54171;SDS011;40076;52.354;4.970;2024-03-08T08:16:40;37.13;;;25.83;;
54171;SDS011;40076;52.354;4.970;2024-03-08T08:19:07;43.70;;;26.88;;
54171;SDS011;40076;52.354;4.970;2024-03-08T08:21:36;40.45;;;27.08;;
54171;SDS011;40076;52.354;4.970;2024-03-08T08:24:04;37.33;;;24.63;;
54171;SDS011;40076;52.354;4.970;2024-03-08T08:26:33;40.58;;;25.75;;
54171;SDS011;40076;52.354;4.970;2024-03-08T08:29:01;40.83;;;25.98;;
54171;SDS011;40076;52.354;4.970;2024-03-08T08:31:29;40.55;;;26.40;;
54171;SDS011;40076;52.354;4.970;2024-03-08T08:34:00;41.33;;;25.65;;
54171;SDS011;40076;52.354;4.970;2024-03-08T08:36:28;37.70;;;26.20;;
54171;SDS011;40076;52.354;4.970;2024-03-08T08:38:55;43.45;;;25.83;;
54171;SDS011;40076;52.354;4.970;2024-03-08T08:41:21;41.28;;;25.65;;
54171;SDS011;40076;52.354;4.970;2024-03-08T08:43:49;37.03;;;25.23;;
54171;SDS011;40076;52.354;4.970;2024-03-08T08:46:18;39.95;;;25.67;;
54171;SDS011;40076;52.354;4.970;2024-03-08T08:48:46;40.78;;;25.42;;
54171;SDS011;40076;52.354;4.970;2024-03-08T08:51:12;38.20;;;26.15;;
54171;SDS011;40076;52.354;4.970;2024-03-08T08:53:44;38.00;;;25.73;;
54171;SDS011;40076;52.354;4.970;2024-03-08T08:56:11;36.90;;;25.70;;
54171;SDS011;40076;52.354;4.970;2024-03-08T08:58:40;38.58;;;25.10;;
54171;SDS011;40076;52.354;4.970;2024-03-08T09:01:14;33.03;;;20.80;;
54171;SDS011;40076;52.354;4.970;2024-03-08T09:03:43;38.70;;;24.92;;
54171;SDS011;40076;52.354;4.970;2024-03-08T09:06:12;40.72;;;27.45;;
54171;SDS011;40076;52.354;4.970;2024-03-08T09:08:40;40.83;;;26.23;;
54171;SDS011;40076;52.354;4.970;2024-03-08T09:11:09;39.42;;;26.85;;
54171;SDS011;40076;52.354;4.970;2024-03-08T09:13:35;40.72;;;26.98;;
54171;SDS011;40076;52.354;4.970;2024-03-08T09:16:01;38.13;;;26.70;;
54171;SDS011;40076;52.354;4.970;2024-03-08T09:18:30;41.50;;;26.48;;
54171;SDS011;40076;52.354;4.970;2024-03-08T09:20:55;41.67;;;26.02;;
54171;SDS011;40076;52.354;4.970;2024-03-08T09:23:21;41.95;;;25.95;;
54171;SDS011;40076;52.354;4.970;2024-03-08T09:25:46;44.65;;;27.88;;
54171;SDS011;40076;52.354;4.970;2024-03-08T09:28:12;44.30;;;26.90;;
54171;SDS011;40076;52.354;4.970;2024-03-08T09:30:41;36.95;;;24.52;;
54171;SDS011;40076;52.354;4.970;2024-03-08T09:33:09;39.22;;;27.38;;
54171;SDS011;40076;52.354;4.970;2024-03-08T09:35:42;40.60;;;26.77;;
54171;SDS011;40076;52.354;4.970;2024-03-08T09:38:24;37.33;;;26.13;;
54171;SDS011;40076;52.354;4.970;2024-03-08T09:40:50;41.05;;;26.58;;
54171;SDS011;40076;52.354;4.970;2024-03-08T09:43:16;40.33;;;26.50;;
54171;SDS011;40076;52.354;4.970;2024-03-08T09:45:43;41.95;;;27.63;;
54171;SDS011;40076;52.354;4.970;2024-03-08T09:48:11;40.63;;;25.95;;
54171;SDS011;40076;52.354;4.970;2024-03-08T09:50:44;41.73;;;25.80;;
54171;SDS011;40076;52.354;4.970;2024-03-08T09:53:11;36.63;;;26.15;;
54171;SDS011;40076;52.354;4.970;2024-03-08T09:55:37;36.17;;;26.10;;
54171;SDS011;40076;52.354;4.970;2024-03-08T09:58:07;39.22;;;27.08;;
54171;SDS011;40076;52.354;4.970;2024-03-08T10:00:51;44.63;;;27.15;;
54171;SDS011;40076;52.354;4.970;2024-03-08T10:03:16;37.78;;;26.58;;
54171;SDS011;40076;52.354;4.970;2024-03-08T10:05:44;38.72;;;24.90;;
54171;SDS011;40076;52.354;4.970;2024-03-08T10:08:19;40.88;;;27.08;;
54171;SDS011;40076;52.354;4.970;2024-03-08T10:10:54;35.80;;;25.65;;
54171;SDS011;40076;52.354;4.970;2024-03-08T10:13:21;38.05;;;26.58;;
54171;SDS011;40076;52.354;4.970;2024-03-08T10:19:01;39.10;;;26.55;;
54171;SDS011;40076;52.354;4.970;2024-03-08T10:22:00;38.17;;;26.65;;
54171;SDS011;40076;52.354;4.970;2024-03-08T10:24:34;37.05;;;24.50;;
54171;SDS011;40076;52.354;4.970;2024-03-08T10:27:12;40.30;;;26.20;;
54171;SDS011;40076;52.354;4.970;2024-03-08T10:30:03;45.45;;;27.50;;
54171;SDS011;40076;52.354;4.970;2024-03-08T10:32:52;41.15;;;26.27;;
54171;SDS011;40076;52.354;4.970;2024-03-08T10:35:18;32.78;;;21.27;;
54171;SDS011;40076;52.354;4.970;2024-03-08T10:37:48;38.55;;;26.23;;
54171;SDS011;40076;52.354;4.970;2024-03-08T10:40:25;42.40;;;27.08;;
54171;SDS011;40076;52.354;4.970;2024-03-08T10:42:53;39.25;;;26.48;;
54171;SDS011;40076;52.354;4.970;2024-03-08T10:45:26;36.50;;;26.33;;
54171;SDS011;40076;52.354;4.970;2024-03-08T10:50:34;37.70;;;24.58;;
54171;SDS011;40076;52.354;4.970;2024-03-08T10:53:00;38.08;;;25.80;;
54171;SDS011;40076;52.354;4.970;2024-03-08T10:55:35;39.20;;;26.05;;
54171;SDS011;40076;52.354;4.970;2024-03-08T10:58:04;39.10;;;26.40;;
54171;SDS011;40076;52.354;4.970;2024-03-08T11:00:29;39.08;;;26.85;;
54171;SDS011;40076;52.354;4.970;2024-03-08T11:02:56;35.67;;;24.65;;
54171;SDS011;40076;52.354;4.970;2024-03-08T11:08:02;37.40;;;24.85;;
54171;SDS011;40076;52.354;4.970;2024-03-08T11:10:30;35.40;;;22.73;;
54171;SDS011;40076;52.354;4.970;2024-03-08T11:12:58;31.50;;;21.35;;
54171;SDS011;40076;52.354;4.970;2024-03-08T11:15:24;32.28;;;22.80;;
54171;SDS011;40076;52.354;4.970;2024-03-08T11:17:49;31.42;;;22.83;;
54171;SDS011;40076;52.354;4.970;2024-03-08T11:20:18;31.60;;;22.90;;
54171;SDS011;40076;52.354;4.970;2024-03-08T11:22:48;34.50;;;24.08;;
54171;SDS011;40076;52.354;4.970;2024-03-08T11:25:34;37.55;;;25.42;;
54171;SDS011;40076;52.354;4.970;2024-03-08T11:28:12;35.72;;;24.00;;
54171;SDS011;40076;52.354;4.970;2024-03-08T11:30:45;33.45;;;23.40;;
54171;SDS011;40076;52.354;4.970;2024-03-08T11:33:34;35.75;;;23.90;;
54171;SDS011;40076;52.354;4.970;2024-03-08T11:38:47;33.97;;;23.55;;
54171;SDS011;40076;52.354;4.970;2024-03-08T11:41:21;34.63;;;23.40;;
54171;SDS011;40076;52.354;4.970;2024-03-08T11:43:48;34.58;;;23.60;;
54171;SDS011;40076;52.354;4.970;2024-03-08T11:49:20;34.10;;;23.23;;
54171;SDS011;40076;52.354;4.970;2024-03-08T11:51:50;34.85;;;24.67;;
54171;SDS011;40076;52.354;4.970;2024-03-08T11:54:17;34.08;;;23.65;;
54171;SDS011;40076;52.354;4.970;2024-03-08T11:56:43;34.38;;;23.42;;
54171;SDS011;40076;52.354;4.970;2024-03-08T11:59:14;35.10;;;24.55;;
54171;SDS011;40076;52.354;4.970;2024-03-08T12:02:06;34.40;;;23.83;;
54171;SDS011;40076;52.354;4.970;2024-03-08T12:04:41;33.22;;;23.67;;
54171;SDS011;40076;52.354;4.970;2024-03-08T12:07:10;35.50;;;23.35;;
54171;SDS011;40076;52.354;4.970;2024-03-08T12:09:39;34.50;;;23.50;;
54171;SDS011;40076;52.354;4.970;2024-03-08T12:12:13;34.20;;;23.52;;
54171;SDS011;40076;52.354;4.970;2024-03-08T12:17:11;33.00;;;22.85;;
54171;SDS011;40076;52.354;4.970;2024-03-08T12:19:39;34.00;;;22.45;;
54171;SDS011;40076;52.354;4.970;2024-03-08T12:22:08;33.63;;;22.80;;
54171;SDS011;40076;52.354;4.970;2024-03-08T12:24:40;33.70;;;22.52;;
54171;SDS011;40076;52.354;4.970;2024-03-08T12:27:21;32.22;;;21.92;;
54171;SDS011;40076;52.354;4.970;2024-03-08T12:29:47;33.30;;;22.70;;
54171;SDS011;40076;52.354;4.970;2024-03-08T12:32:12;31.05;;;21.90;;
54171;SDS011;40076;52.354;4.970;2024-03-08T12:34:41;34.13;;;23.25;;
54171;SDS011;40076;52.354;4.970;2024-03-08T12:37:09;30.60;;;21.63;;
54171;SDS011;40076;52.354;4.970;2024-03-08T12:39:35;30.38;;;22.10;;
54171;SDS011;40076;52.354;4.970;2024-03-08T12:42:08;31.75;;;20.98;;
54171;SDS011;40076;52.354;4.970;2024-03-08T12:44:33;32.83;;;22.35;;
54171;SDS011;40076;52.354;4.970;2024-03-08T12:46:59;31.20;;;22.90;;
54171;SDS011;40076;52.354;4.970;2024-03-08T12:49:24;28.52;;;20.98;;
54171;SDS011;40076;52.354;4.970;2024-03-08T12:51:50;31.20;;;20.08;;
54171;SDS011;40076;52.354;4.970;2024-03-08T12:54:17;31.67;;;20.88;;
54171;SDS011;40076;52.354;4.970;2024-03-08T12:56:42;29.40;;;20.10;;
54171;SDS011;40076;52.354;4.970;2024-03-08T12:59:08;27.42;;;19.42;;
54171;SDS011;40076;52.354;4.970;2024-03-08T13:01:33;27.65;;;19.42;;
54171;SDS011;40076;52.354;4.970;2024-03-08T13:04:05;25.10;;;17.50;;
54171;SDS011;40076;52.354;4.970;2024-03-08T13:06:36;27.10;;;17.25;;
54171;SDS011;40076;52.354;4.970;2024-03-08T13:09:01;23.60;;;16.67;;
54171;SDS011;40076;52.354;4.970;2024-03-08T13:11:30;21.05;;;16.13;;
54171;SDS011;40076;52.354;4.970;2024-03-08T13:14:01;23.98;;;16.73;;
54171;SDS011;40076;52.354;4.970;2024-03-08T13:16:29;24.40;;;16.67;;
54171;SDS011;40076;52.354;4.970;2024-03-08T13:18:56;22.30;;;16.35;;
54171;SDS011;40076;52.354;4.970;2024-03-08T13:21:22;23.35;;;16.15;;
54171;SDS011;40076;52.354;4.970;2024-03-08T13:23:49;23.02;;;15.85;;
54171;SDS011;40076;52.354;4.970;2024-03-08T13:26:15;22.90;;;16.55;;
54171;SDS011;40076;52.354;4.970;2024-03-08T13:28:43;22.40;;;16.23;;
54171;SDS011;40076;52.354;4.970;2024-03-08T13:31:10;22.88;;;15.52;;
54171;SDS011;40076;52.354;4.970;2024-03-08T13:33:36;23.63;;;15.73;;
54171;SDS011;40076;52.354;4.970;2024-03-08T13:36:05;22.98;;;16.38;;
54171;SDS011;40076;52.354;4.970;2024-03-08T13:38:32;24.27;;;16.38;;
54171;SDS011;40076;52.354;4.970;2024-03-08T13:41:02;24.15;;;15.82;;
54171;SDS011;40076;52.354;4.970;2024-03-08T13:43:28;23.02;;;16.70;;
54171;SDS011;40076;52.354;4.970;2024-03-08T13:45:53;20.25;;;15.20;;
54171;SDS011;40076;52.354;4.970;2024-03-08T13:48:19;22.90;;;16.55;;
54171;SDS011;40076;52.354;4.970;2024-03-08T13:50:45;23.33;;;16.17;;
54171;SDS011;40076;52.354;4.970;2024-03-08T13:53:10;22.75;;;16.60;;
54171;SDS011;40076;52.354;4.970;2024-03-08T13:55:36;23.60;;;16.60;;
54171;SDS011;40076;52.354;4.970;2024-03-08T13:58:01;22.40;;;15.57;;
54171;SDS011;40076;52.354;4.970;2024-03-08T14:00:27;22.45;;;15.98;;
54171;SDS011;40076;52.354;4.970;2024-03-08T14:02:58;24.90;;;17.92;;
54171;SDS011;40076;52.354;4.970;2024-03-08T14:05:23;24.75;;;16.95;;
54171;SDS011;40076;52.354;4.970;2024-03-08T14:07:49;23.83;;;16.48;;
54171;SDS011;40076;52.354;4.970;2024-03-08T14:10:14;23.60;;;16.70;;
54171;SDS011;40076;52.354;4.970;2024-03-08T14:12:40;23.42;;;16.50;;
54171;SDS011;40076;52.354;4.970;2024-03-08T14:15:08;25.83;;;17.55;;
54171;SDS011;40076;52.354;4.970;2024-03-08T14:17:34;22.98;;;17.52;;
54171;SDS011;40076;52.354;4.970;2024-03-08T14:20:00;23.50;;;16.65;;
54171;SDS011;40076;52.354;4.970;2024-03-08T14:22:26;22.30;;;17.05;;
54171;SDS011;40076;52.354;4.970;2024-03-08T14:24:51;25.00;;;17.27;;
54171;SDS011;40076;52.354;4.970;2024-03-08T14:27:17;24.20;;;16.58;;
54171;SDS011;40076;52.354;4.970;2024-03-08T14:29:43;23.48;;;17.40;;
54171;SDS011;40076;52.354;4.970;2024-03-08T14:34:44;26.35;;;17.08;;
54171;SDS011;40076;52.354;4.970;2024-03-08T14:37:11;25.05;;;17.63;;
54171;SDS011;40076;52.354;4.970;2024-03-08T14:39:38;26.23;;;17.33;;
54171;SDS011;40076;52.354;4.970;2024-03-08T14:42:04;25.23;;;17.40;;
54171;SDS011;40076;52.354;4.970;2024-03-08T14:44:37;26.08;;;19.65;;
54171;SDS011;40076;52.354;4.970;2024-03-08T14:47:03;26.75;;;17.85;;
54171;SDS011;40076;52.354;4.970;2024-03-08T14:49:30;23.60;;;18.02;;
54171;SDS011;40076;52.354;4.970;2024-03-08T14:51:56;24.70;;;17.85;;
54171;SDS011;40076;52.354;4.970;2024-03-08T14:54:23;24.10;;;18.27;;
54171;SDS011;40076;52.354;4.970;2024-03-08T14:56:48;24.23;;;18.45;;
54171;SDS011;40076;52.354;4.970;2024-03-08T14:59:15;28.42;;;18.33;;